sensor_id;sensor_type;location;lat;lon;timestamp;P1;durP1;ratioP1;P2;durP2;ratioP2
11531;SDS011;5822;51.000;5.874;2023-03-01T00:01:21;25.02;;;23.52;;
11531;SDS011;5822;51.000;5.874;2023-03-01T00:03:49;22.25;;;20.95;;
11531;SDS011;5822;51.000;5.874;2023-03-01T00:06:15;21.88;;;20.58;;
11531;SDS011;5822;51.000;5.874;2023-03-01T00:08:41;22.67;;;21.35;;
11531;SDS011;5822;51.000;5.874;2023-03-01T00:11:27;24.00;;;22.50;;
11531;SDS011;5822;51.000;5.874;2023-03-01T00:13:55;23.90;;;22.50;;
11531;SDS011;5822;51.000;5.874;2023-03-01T00:16:24;22.20;;;20.90;;
11531;SDS011;5822;51.000;5.874;2023-03-01T00:18:51;23.33;;;22.02;;
11531;SDS011;5822;51.000;5.874;2023-03-01T00:21:19;24.58;;;23.17;;
11531;SDS011;5822;51.000;5.874;2023-03-01T00:23:45;22.30;;;21.00;;
11531;SDS011;5822;51.000;5.874;2023-03-01T00:26:12;23.00;;;21.60;;
11531;SDS011;5822;51.000;5.874;2023-03-01T00:28:39;22.17;;;20.88;;
11531;SDS011;5822;51.000;5.874;2023-03-01T00:31:09;21.20;;;19.90;;
11531;SDS011;5822;51.000;5.874;2023-03-01T00:33:39;22.80;;;21.50;;
11531;SDS011;5822;51.000;5.874;2023-03-01T00:36:05;22.60;;;21.30;;
11531;SDS011;5822;51.000;5.874;2023-03-01T00:38:35;23.30;;;21.90;;
11531;SDS011;5822;51.000;5.874;2023-03-01T00:41:03;24.27;;;22.88;;
11531;SDS011;5822;51.000;5.874;2023-03-01T00:43:30;22.25;;;20.95;;
11531;SDS011;5822;51.000;5.874;2023-03-01T00:46:00;23.75;;;22.35;;
11531;SDS011;5822;51.000;5.874;2023-03-01T00:48:26;24.20;;;22.70;;
11531;SDS011;5822;51.000;5.874;2023-03-01T00:50:52;23.00;;;21.60;;
11531;SDS011;5822;51.000;5.874;2023-03-01T00:53:17;23.00;;;21.60;;
11531;SDS011;5822;51.000;5.874;2023-03-01T00:55:43;23.40;;;22.10;;
11531;SDS011;5822;51.000;5.874;2023-03-01T00:58:09;23.23;;;21.92;;
11531;SDS011;5822;51.000;5.874;2023-03-01T01:00:34;22.30;;;21.00;;
11531;SDS011;5822;51.000;5.874;2023-03-01T01:03:00;24.42;;;23.02;;
11531;SDS011;5822;51.000;5.874;2023-03-01T01:05:26;22.00;;;20.70;;
11531;SDS011;5822;51.000;5.874;2023-03-01T01:07:52;22.42;;;21.13;;
11531;SDS011;5822;51.000;5.874;2023-03-01T01:10:17;24.10;;;22.70;;
11531;SDS011;5822;51.000;5.874;2023-03-01T01:12:44;22.60;;;21.20;;
11531;SDS011;5822;51.000;5.874;2023-03-01T01:15:10;23.27;;;21.88;;
11531;SDS011;5822;51.000;5.874;2023-03-01T01:17:38;23.03;;;21.63;;
11531;SDS011;5822;51.000;5.874;2023-03-01T01:20:04;22.58;;;21.27;;
11531;SDS011;5822;51.000;5.874;2023-03-01T01:22:30;23.25;;;21.85;;
11531;SDS011;5822;51.000;5.874;2023-03-01T01:24:56;25.23;;;23.80;;
11531;SDS011;5822;51.000;5.874;2023-03-01T01:27:22;32.58;;;30.88;;
11531;SDS011;5822;51.000;5.874;2023-03-01T01:29:47;25.17;;;23.77;;
11531;SDS011;5822;51.000;5.874;2023-03-01T01:32:13;22.10;;;20.80;;
11531;SDS011;5822;51.000;5.874;2023-03-01T01:34:39;22.20;;;20.90;;
11531;SDS011;5822;51.000;5.874;2023-03-01T01:37:04;22.33;;;21.00;;
11531;SDS011;5822;51.000;5.874;2023-03-01T01:39:32;22.67;;;21.38;;
11531;SDS011;5822;51.000;5.874;2023-03-01T01:42:00;23.40;;;22.00;;
11531;SDS011;5822;51.000;5.874;2023-03-01T01:44:27;23.20;;;21.80;;
11531;SDS011;5822;51.000;5.874;2023-03-01T01:46:54;23.40;;;22.00;;
11531;SDS011;5822;51.000;5.874;2023-03-01T01:49:49;23.60;;;22.17;;
11531;SDS011;5822;51.000;5.874;2023-03-01T01:54:51;22.85;;;21.45;;
11531;SDS011;5822;51.000;5.874;2023-03-01T01:57:37;22.83;;;21.42;;
11531;SDS011;5822;51.000;5.874;2023-03-01T02:00:11;22.33;;;21.02;;
11531;SDS011;5822;51.000;5.874;2023-03-01T02:02:39;23.00;;;21.60;;
11531;SDS011;5822;51.000;5.874;2023-03-01T02:05:08;23.65;;;22.17;;
11531;SDS011;5822;51.000;5.874;2023-03-01T02:07:38;23.20;;;21.80;;
11531;SDS011;5822;51.000;5.874;2023-03-01T02:10:05;23.83;;;22.33;;
11531;SDS011;5822;51.000;5.874;2023-03-01T02:12:31;23.52;;;22.13;;
11531;SDS011;5822;51.000;5.874;2023-03-01T02:14:58;23.30;;;21.90;;
11531;SDS011;5822;51.000;5.874;2023-03-01T02:17:23;22.90;;;21.60;;
11531;SDS011;5822;51.000;5.874;2023-03-01T02:19:59;23.48;;;22.08;;
11531;SDS011;5822;51.000;5.874;2023-03-01T02:22:46;23.77;;;22.30;;
11531;SDS011;5822;51.000;5.874;2023-03-01T02:25:24;23.83;;;22.33;;
11531;SDS011;5822;51.000;5.874;2023-03-01T02:30:42;24.23;;;22.73;;
11531;SDS011;5822;51.000;5.874;2023-03-01T02:33:29;22.75;;;21.45;;
11531;SDS011;5822;51.000;5.874;2023-03-01T02:35:59;22.23;;;20.92;;
11531;SDS011;5822;51.000;5.874;2023-03-01T02:38:26;23.20;;;21.80;;
11531;SDS011;5822;51.000;5.874;2023-03-01T02:40:53;22.33;;;21.03;;
11531;SDS011;5822;51.000;5.874;2023-03-01T02:43:22;23.08;;;21.67;;
11531;SDS011;5822;51.000;5.874;2023-03-01T02:45:52;23.27;;;21.88;;
11531;SDS011;5822;51.000;5.874;2023-03-01T02:48:22;23.50;;;22.10;;
11531;SDS011;5822;51.000;5.874;2023-03-01T02:53:37;23.10;;;21.70;;
11531;SDS011;5822;51.000;5.874;2023-03-01T02:56:18;23.23;;;21.83;;
11531;SDS011;5822;51.000;5.874;2023-03-01T02:58:43;22.95;;;21.55;;
11531;SDS011;5822;51.000;5.874;2023-03-01T03:01:13;23.38;;;21.98;;
11531;SDS011;5822;51.000;5.874;2023-03-01T03:03:41;23.67;;;22.27;;
11531;SDS011;5822;51.000;5.874;2023-03-01T03:06:07;22.60;;;21.20;;
11531;SDS011;5822;51.000;5.874;2023-03-01T03:08:34;22.50;;;21.20;;
11531;SDS011;5822;51.000;5.874;2023-03-01T03:11:00;23.23;;;21.83;;
11531;SDS011;5822;51.000;5.874;2023-03-01T03:13:26;23.70;;;22.20;;
11531;SDS011;5822;51.000;5.874;2023-03-01T03:15:53;23.95;;;22.55;;
11531;SDS011;5822;51.000;5.874;2023-03-01T03:18:20;23.63;;;22.23;;
11531;SDS011;5822;51.000;5.874;2023-03-01T03:20:47;23.80;;;22.30;;
11531;SDS011;5822;51.000;5.874;2023-03-01T03:23:17;23.80;;;22.40;;
11531;SDS011;5822;51.000;5.874;2023-03-01T03:25:44;23.55;;;22.15;;
11531;SDS011;5822;51.000;5.874;2023-03-01T03:28:10;23.20;;;21.80;;
11531;SDS011;5822;51.000;5.874;2023-03-01T03:30:36;23.60;;;22.20;;
11531;SDS011;5822;51.000;5.874;2023-03-01T03:33:05;23.50;;;22.10;;
11531;SDS011;5822;51.000;5.874;2023-03-01T03:35:32;23.17;;;21.77;;
11531;SDS011;5822;51.000;5.874;2023-03-01T03:38:00;22.85;;;21.45;;
11531;SDS011;5822;51.000;5.874;2023-03-01T03:40:35;22.80;;;21.48;;
11531;SDS011;5822;51.000;5.874;2023-03-01T03:43:04;22.98;;;21.58;;
11531;SDS011;5822;51.000;5.874;2023-03-01T03:45:32;22.70;;;21.30;;
11531;SDS011;5822;51.000;5.874;2023-03-01T03:48:02;23.05;;;21.65;;
11531;SDS011;5822;51.000;5.874;2023-03-01T03:50:29;22.97;;;21.57;;
11531;SDS011;5822;51.000;5.874;2023-03-01T03:52:55;23.40;;;22.00;;
11531;SDS011;5822;51.000;5.874;2023-03-01T03:55:21;23.38;;;21.98;;
11531;SDS011;5822;51.000;5.874;2023-03-01T03:57:47;23.27;;;21.87;;
11531;SDS011;5822;51.000;5.874;2023-03-01T04:00:20;23.02;;;21.63;;
11531;SDS011;5822;51.000;5.874;2023-03-01T04:02:47;24.38;;;22.88;;
11531;SDS011;5822;51.000;5.874;2023-03-01T04:05:14;23.20;;;21.80;;
11531;SDS011;5822;51.000;5.874;2023-03-01T04:07:41;23.52;;;22.02;;
11531;SDS011;5822;51.000;5.874;2023-03-01T04:10:09;24.15;;;22.65;;
11531;SDS011;5822;51.000;5.874;2023-03-01T04:12:39;23.38;;;21.98;;
11531;SDS011;5822;51.000;5.874;2023-03-01T04:15:06;23.52;;;22.02;;
11531;SDS011;5822;51.000;5.874;2023-03-01T04:17:47;23.27;;;21.88;;
11531;SDS011;5822;51.000;5.874;2023-03-01T04:20:14;23.63;;;22.23;;
11531;SDS011;5822;51.000;5.874;2023-03-01T04:23:00;23.60;;;22.17;;
11531;SDS011;5822;51.000;5.874;2023-03-01T04:28:21;24.10;;;22.60;;
11531;SDS011;5822;51.000;5.874;2023-03-01T04:31:16;23.73;;;22.33;;
11531;SDS011;5822;51.000;5.874;2023-03-01T04:33:47;22.65;;;21.35;;
11531;SDS011;5822;51.000;5.874;2023-03-01T04:36:19;23.60;;;22.10;;
11531;SDS011;5822;51.000;5.874;2023-03-01T04:38:46;22.88;;;21.48;;
11531;SDS011;5822;51.000;5.874;2023-03-01T04:41:12;23.10;;;21.70;;
11531;SDS011;5822;51.000;5.874;2023-03-01T04:43:39;24.58;;;23.08;;
11531;SDS011;5822;51.000;5.874;2023-03-01T04:46:06;23.45;;;22.05;;
11531;SDS011;5822;51.000;5.874;2023-03-01T04:48:34;23.75;;;22.25;;
11531;SDS011;5822;51.000;5.874;2023-03-01T04:51:00;23.70;;;22.30;;
11531;SDS011;5822;51.000;5.874;2023-03-01T04:53:27;22.98;;;21.58;;
11531;SDS011;5822;51.000;5.874;2023-03-01T04:55:54;23.58;;;22.15;;
11531;SDS011;5822;51.000;5.874;2023-03-01T04:58:21;23.77;;;22.27;;
11531;SDS011;5822;51.000;5.874;2023-03-01T05:00:50;24.40;;;22.80;;
11531;SDS011;5822;51.000;5.874;2023-03-01T05:03:17;24.60;;;23.00;;
11531;SDS011;5822;51.000;5.874;2023-03-01T05:05:44;24.48;;;22.88;;
11531;SDS011;5822;51.000;5.874;2023-03-01T05:08:11;23.77;;;22.27;;
11531;SDS011;5822;51.000;5.874;2023-03-01T05:10:50;24.65;;;23.13;;
11531;SDS011;5822;51.000;5.874;2023-03-01T05:13:17;24.10;;;22.60;;
11531;SDS011;5822;51.000;5.874;2023-03-01T05:15:56;24.00;;;22.50;;
11531;SDS011;5822;51.000;5.874;2023-03-01T05:18:24;24.10;;;22.60;;
11531;SDS011;5822;51.000;5.874;2023-03-01T05:20:51;23.67;;;22.17;;
11531;SDS011;5822;51.000;5.874;2023-03-01T05:23:17;24.02;;;22.52;;
11531;SDS011;5822;51.000;5.874;2023-03-01T05:25:43;23.85;;;22.35;;
11531;SDS011;5822;51.000;5.874;2023-03-01T05:28:12;24.80;;;23.20;;
11531;SDS011;5822;51.000;5.874;2023-03-01T05:30:39;24.65;;;23.05;;
11531;SDS011;5822;51.000;5.874;2023-03-01T05:33:05;24.45;;;22.85;;
11531;SDS011;5822;51.000;5.874;2023-03-01T05:35:35;24.45;;;22.95;;
11531;SDS011;5822;51.000;5.874;2023-03-01T05:38:01;24.48;;;22.88;;
11531;SDS011;5822;51.000;5.874;2023-03-01T05:40:27;24.23;;;22.63;;
11531;SDS011;5822;51.000;5.874;2023-03-01T05:42:55;24.30;;;22.70;;
11531;SDS011;5822;51.000;5.874;2023-03-01T05:45:22;25.35;;;23.65;;
11531;SDS011;5822;51.000;5.874;2023-03-01T05:47:49;24.90;;;23.30;;
11531;SDS011;5822;51.000;5.874;2023-03-01T05:50:23;25.53;;;23.83;;
11531;SDS011;5822;51.000;5.874;2023-03-01T05:52:51;24.92;;;23.33;;
11531;SDS011;5822;51.000;5.874;2023-03-01T05:55:29;25.00;;;23.30;;
11531;SDS011;5822;51.000;5.874;2023-03-01T05:57:57;25.15;;;23.45;;
11531;SDS011;5822;51.000;5.874;2023-03-01T06:00:24;25.30;;;23.60;;
11531;SDS011;5822;51.000;5.874;2023-03-01T06:02:50;25.25;;;23.65;;
11531;SDS011;5822;51.000;5.874;2023-03-01T06:05:16;24.77;;;23.08;;
11531;SDS011;5822;51.000;5.874;2023-03-01T06:07:43;24.48;;;22.88;;
11531;SDS011;5822;51.000;5.874;2023-03-01T06:10:09;24.80;;;23.20;;
11531;SDS011;5822;51.000;5.874;2023-03-01T06:12:36;24.95;;;23.30;;
11531;SDS011;5822;51.000;5.874;2023-03-01T06:15:03;25.42;;;23.73;;
11531;SDS011;5822;51.000;5.874;2023-03-01T06:17:31;25.48;;;23.77;;
11531;SDS011;5822;51.000;5.874;2023-03-01T06:20:02;25.65;;;23.95;;
11531;SDS011;5822;51.000;5.874;2023-03-01T06:22:54;25.88;;;24.17;;
11531;SDS011;5822;51.000;5.874;2023-03-01T06:25:21;25.25;;;23.55;;
11531;SDS011;5822;51.000;5.874;2023-03-01T06:27:48;24.67;;;23.08;;
11531;SDS011;5822;51.000;5.874;2023-03-01T06:32:42;25.60;;;23.90;;
11531;SDS011;5822;51.000;5.874;2023-03-01T06:35:08;25.88;;;24.17;;
11531;SDS011;5822;51.000;5.874;2023-03-01T06:37:35;25.45;;;23.75;;
11531;SDS011;5822;51.000;5.874;2023-03-01T06:40:02;25.38;;;23.67;;
11531;SDS011;5822;51.000;5.874;2023-03-01T06:42:39;24.48;;;22.88;;
11531;SDS011;5822;51.000;5.874;2023-03-01T06:45:08;24.42;;;22.85;;
11531;SDS011;5822;51.000;5.874;2023-03-01T06:47:34;23.70;;;22.20;;
11531;SDS011;5822;51.000;5.874;2023-03-01T06:50:00;25.43;;;23.73;;
11531;SDS011;5822;51.000;5.874;2023-03-01T06:52:26;24.83;;;23.23;;
11531;SDS011;5822;51.000;5.874;2023-03-01T06:54:52;25.00;;;23.40;;
11531;SDS011;5822;51.000;5.874;2023-03-01T06:57:18;24.03;;;22.53;;
11531;SDS011;5822;51.000;5.874;2023-03-01T06:59:43;26.03;;;24.33;;
11531;SDS011;5822;51.000;5.874;2023-03-01T07:02:10;25.67;;;23.98;;
11531;SDS011;5822;51.000;5.874;2023-03-01T07:04:37;25.42;;;23.83;;
11531;SDS011;5822;51.000;5.874;2023-03-01T07:07:02;25.80;;;24.10;;
11531;SDS011;5822;51.000;5.874;2023-03-01T07:09:28;30.60;;;28.70;;
11531;SDS011;5822;51.000;5.874;2023-03-01T07:11:54;37.77;;;35.77;;
11531;SDS011;5822;51.000;5.874;2023-03-01T07:14:19;43.20;;;41.00;;
11531;SDS011;5822;51.000;5.874;2023-03-01T07:16:45;61.60;;;58.70;;
11531;SDS011;5822;51.000;5.874;2023-03-01T07:19:11;67.03;;;63.83;;
11531;SDS011;5822;51.000;5.874;2023-03-01T07:21:36;62.83;;;59.83;;
11531;SDS011;5822;51.000;5.874;2023-03-01T07:24:06;62.30;;;59.35;;
11531;SDS011;5822;51.000;5.874;2023-03-01T07:26:32;63.40;;;60.30;;
11531;SDS011;5822;51.000;5.874;2023-03-01T07:29:02;60.43;;;57.53;;
11531;SDS011;5822;51.000;5.874;2023-03-01T07:31:28;60.33;;;57.42;;
11531;SDS011;5822;51.000;5.874;2023-03-01T07:33:54;58.00;;;55.20;;
11531;SDS011;5822;51.000;5.874;2023-03-01T07:36:21;55.30;;;52.60;;
11531;SDS011;5822;51.000;5.874;2023-03-01T07:38:50;49.15;;;46.65;;
11531;SDS011;5822;51.000;5.874;2023-03-01T07:41:16;32.70;;;30.90;;
11531;SDS011;5822;51.000;5.874;2023-03-01T07:43:42;38.50;;;36.60;;
11531;SDS011;5822;51.000;5.874;2023-03-01T07:46:08;36.73;;;34.90;;
11531;SDS011;5822;51.000;5.874;2023-03-01T07:48:33;40.75;;;38.65;;
11531;SDS011;5822;51.000;5.874;2023-03-01T07:51:03;46.13;;;43.83;;
11531;SDS011;5822;51.000;5.874;2023-03-01T07:53:30;54.88;;;52.17;;
11531;SDS011;5822;51.000;5.874;2023-03-01T07:56:00;54.78;;;52.17;;
11531;SDS011;5822;51.000;5.874;2023-03-01T07:58:36;53.60;;;51.10;;
11531;SDS011;5822;51.000;5.874;2023-03-01T08:01:04;59.13;;;56.33;;
11531;SDS011;5822;51.000;5.874;2023-03-01T08:03:31;54.03;;;51.47;;
11531;SDS011;5822;51.000;5.874;2023-03-01T08:06:01;57.90;;;55.10;;
11531;SDS011;5822;51.000;5.874;2023-03-01T08:08:28;58.95;;;56.15;;
11531;SDS011;5822;51.000;5.874;2023-03-01T08:10:58;53.13;;;50.63;;
11531;SDS011;5822;51.000;5.874;2023-03-01T08:13:25;63.47;;;60.45;;
11531;SDS011;5822;51.000;5.874;2023-03-01T08:15:51;59.28;;;56.45;;
11531;SDS011;5822;51.000;5.874;2023-03-01T08:18:17;61.10;;;58.15;;
11531;SDS011;5822;51.000;5.874;2023-03-01T08:20:44;58.55;;;55.75;;
11531;SDS011;5822;51.000;5.874;2023-03-01T08:23:09;46.07;;;43.87;;
11531;SDS011;5822;51.000;5.874;2023-03-01T08:25:35;42.05;;;40.05;;
11531;SDS011;5822;51.000;5.874;2023-03-01T08:28:01;31.15;;;29.45;;
11531;SDS011;5822;51.000;5.874;2023-03-01T08:30:27;29.63;;;27.93;;
11531;SDS011;5822;51.000;5.874;2023-03-01T08:32:55;40.95;;;38.95;;
11531;SDS011;5822;51.000;5.874;2023-03-01T08:35:21;53.17;;;50.57;;
11531;SDS011;5822;51.000;5.874;2023-03-01T08:37:47;54.15;;;51.55;;
11531;SDS011;5822;51.000;5.874;2023-03-01T08:40:13;56.73;;;54.03;;
11531;SDS011;5822;51.000;5.874;2023-03-01T08:42:41;59.08;;;56.28;;
11531;SDS011;5822;51.000;5.874;2023-03-01T08:45:12;60.58;;;57.72;;
11531;SDS011;5822;51.000;5.874;2023-03-01T08:47:43;59.97;;;57.15;;
11531;SDS011;5822;51.000;5.874;2023-03-01T08:50:09;57.03;;;54.40;;
11531;SDS011;5822;51.000;5.874;2023-03-01T08:52:35;58.95;;;56.05;;
11531;SDS011;5822;51.000;5.874;2023-03-01T08:55:00;59.97;;;57.07;;
11531;SDS011;5822;51.000;5.874;2023-03-01T08:57:26;58.05;;;55.25;;
11531;SDS011;5822;51.000;5.874;2023-03-01T08:59:52;45.70;;;43.50;;
11531;SDS011;5822;51.000;5.874;2023-03-01T09:02:18;49.83;;;47.33;;
11531;SDS011;5822;51.000;5.874;2023-03-01T09:04:43;46.73;;;44.53;;
11531;SDS011;5822;51.000;5.874;2023-03-01T09:07:10;36.45;;;34.58;;
11531;SDS011;5822;51.000;5.874;2023-03-01T09:09:36;39.95;;;37.95;;
11531;SDS011;5822;51.000;5.874;2023-03-01T09:12:02;34.15;;;32.35;;
11531;SDS011;5822;51.000;5.874;2023-03-01T09:14:28;31.90;;;30.20;;
11531;SDS011;5822;51.000;5.874;2023-03-01T09:16:54;45.55;;;43.35;;
11531;SDS011;5822;51.000;5.874;2023-03-01T09:19:20;48.35;;;46.05;;
11531;SDS011;5822;51.000;5.874;2023-03-01T09:21:46;49.73;;;47.23;;
11531;SDS011;5822;51.000;5.874;2023-03-01T09:24:17;57.80;;;55.00;;
11531;SDS011;5822;51.000;5.874;2023-03-01T09:26:45;59.92;;;57.03;;
11531;SDS011;5822;51.000;5.874;2023-03-01T09:29:12;61.28;;;58.38;;
11531;SDS011;5822;51.000;5.874;2023-03-01T09:31:39;57.60;;;54.80;;
11531;SDS011;5822;51.000;5.874;2023-03-01T09:34:05;55.95;;;53.25;;
11531;SDS011;5822;51.000;5.874;2023-03-01T09:36:32;55.97;;;53.27;;
11531;SDS011;5822;51.000;5.874;2023-03-01T09:38:58;54.58;;;51.97;;
11531;SDS011;5822;51.000;5.874;2023-03-01T09:41:28;52.17;;;49.67;;
11531;SDS011;5822;51.000;5.874;2023-03-01T09:44:18;57.23;;;54.37;;
11531;SDS011;5822;51.000;5.874;2023-03-01T09:46:53;46.63;;;44.40;;
11531;SDS011;5822;51.000;5.874;2023-03-01T09:49:23;51.75;;;49.25;;
11531;SDS011;5822;51.000;5.874;2023-03-01T09:52:02;43.00;;;40.90;;
11531;SDS011;5822;51.000;5.874;2023-03-01T09:54:29;32.72;;;30.92;;
11531;SDS011;5822;51.000;5.874;2023-03-01T10:02:37;51.13;;;48.72;;
11531;SDS011;5822;51.000;5.874;2023-03-01T10:05:23;59.20;;;56.30;;
11531;SDS011;5822;51.000;5.874;2023-03-01T10:10:39;54.80;;;52.17;;
11531;SDS011;5822;51.000;5.874;2023-03-01T10:16:13;60.75;;;57.85;;
11531;SDS011;5822;51.000;5.874;2023-03-01T10:18:42;55.08;;;52.38;;
11531;SDS011;5822;51.000;5.874;2023-03-01T10:21:17;53.50;;;51.00;;
11531;SDS011;5822;51.000;5.874;2023-03-01T10:23:44;57.53;;;54.78;;
11531;SDS011;5822;51.000;5.874;2023-03-01T10:29:09;60.03;;;57.13;;
11531;SDS011;5822;51.000;5.874;2023-03-01T10:31:46;58.85;;;55.90;;
11531;SDS011;5822;51.000;5.874;2023-03-01T10:34:27;57.60;;;54.90;;
11531;SDS011;5822;51.000;5.874;2023-03-01T10:37:04;60.42;;;57.53;;
11531;SDS011;5822;51.000;5.874;2023-03-01T10:39:36;52.80;;;50.20;;
11531;SDS011;5822;51.000;5.874;2023-03-01T10:42:28;49.78;;;47.38;;
11531;SDS011;5822;51.000;5.874;2023-03-01T10:44:56;48.67;;;46.28;;
11531;SDS011;5822;51.000;5.874;2023-03-01T10:47:22;45.43;;;43.23;;
11531;SDS011;5822;51.000;5.874;2023-03-01T10:50:00;45.08;;;42.78;;
11531;SDS011;5822;51.000;5.874;2023-03-01T10:55:45;33.80;;;31.92;;
11531;SDS011;5822;51.000;5.874;2023-03-01T10:57:45;32.10;;;30.20;;
11531;SDS011;5822;51.000;5.874;2023-03-01T11:05:34;41.58;;;39.47;;
11531;SDS011;5822;51.000;5.874;2023-03-01T11:08:00;47.97;;;45.57;;
11531;SDS011;5822;51.000;5.874;2023-03-01T11:10:35;47.55;;;45.17;;
11531;SDS011;5822;51.000;5.874;2023-03-01T11:13:08;53.00;;;50.40;;
11531;SDS011;5822;51.000;5.874;2023-03-01T11:15:43;52.17;;;49.57;;
11531;SDS011;5822;51.000;5.874;2023-03-01T11:18:24;49.90;;;47.50;;
11531;SDS011;5822;51.000;5.874;2023-03-01T11:20:51;51.67;;;49.17;;
11531;SDS011;5822;51.000;5.874;2023-03-01T11:23:20;50.80;;;48.40;;
11531;SDS011;5822;51.000;5.874;2023-03-01T11:25:56;50.67;;;48.17;;
11531;SDS011;5822;51.000;5.874;2023-03-01T11:28:25;48.85;;;46.47;;
11531;SDS011;5822;51.000;5.874;2023-03-01T11:31:03;51.40;;;48.90;;
11531;SDS011;5822;51.000;5.874;2023-03-01T11:33:35;51.80;;;49.30;;
11531;SDS011;5822;51.000;5.874;2023-03-01T11:36:06;49.40;;;46.90;;
11531;SDS011;5822;51.000;5.874;2023-03-01T11:38:44;48.63;;;46.22;;
11531;SDS011;5822;51.000;5.874;2023-03-01T11:41:20;52.08;;;49.58;;
11531;SDS011;5822;51.000;5.874;2023-03-01T11:44:03;51.72;;;49.17;;
11531;SDS011;5822;51.000;5.874;2023-03-01T11:57:07;39.50;;;37.50;;
11531;SDS011;5822;51.000;5.874;2023-03-01T12:02:25;41.85;;;39.85;;
11531;SDS011;5822;51.000;5.874;2023-03-01T12:10:24;40.22;;;38.15;;
11531;SDS011;5822;51.000;5.874;2023-03-01T12:21:49;29.83;;;28.17;;
11531;SDS011;5822;51.000;5.874;2023-03-01T12:35:23;29.60;;;27.90;;
11531;SDS011;5822;51.000;5.874;2023-03-01T12:38:17;29.10;;;27.40;;
11531;SDS011;5822;51.000;5.874;2023-03-01T12:49:38;30.08;;;28.27;;
11531;SDS011;5822;51.000;5.874;2023-03-01T12:52:11;26.83;;;25.23;;
11531;SDS011;5822;51.000;5.874;2023-03-01T12:54:46;26.92;;;25.35;;
11531;SDS011;5822;51.000;5.874;2023-03-01T12:57:17;27.90;;;26.30;;
11531;SDS011;5822;51.000;5.874;2023-03-01T13:02:45;32.72;;;30.95;;
11531;SDS011;5822;51.000;5.874;2023-03-01T13:11:01;30.77;;;29.00;;
11531;SDS011;5822;51.000;5.874;2023-03-01T13:13:29;29.92;;;28.23;;
11531;SDS011;5822;51.000;5.874;2023-03-01T13:15:55;28.58;;;27.00;;
11531;SDS011;5822;51.000;5.874;2023-03-01T13:20:55;27.20;;;25.70;;
11531;SDS011;5822;51.000;5.874;2023-03-01T13:26:00;30.20;;;28.60;;
11531;SDS011;5822;51.000;5.874;2023-03-01T13:33:48;29.83;;;28.23;;
11531;SDS011;5822;51.000;5.874;2023-03-01T13:46:59;27.90;;;26.40;;
11531;SDS011;5822;51.000;5.874;2023-03-01T13:49:44;26.85;;;25.35;;
11531;SDS011;5822;51.000;5.874;2023-03-01T13:57:57;26.63;;;25.13;;
11531;SDS011;5822;51.000;5.874;2023-03-01T14:00:27;27.40;;;25.83;;
11531;SDS011;5822;51.000;5.874;2023-03-01T14:05:38;26.92;;;25.42;;
11531;SDS011;5822;51.000;5.874;2023-03-01T14:08:17;26.00;;;24.50;;
11531;SDS011;5822;51.000;5.874;2023-03-01T14:10:54;25.08;;;23.67;;
11531;SDS011;5822;51.000;5.874;2023-03-01T14:18:57;26.08;;;24.67;;
11531;SDS011;5822;51.000;5.874;2023-03-01T14:21:32;25.67;;;24.27;;
11531;SDS011;5822;51.000;5.874;2023-03-01T14:23:58;26.52;;;25.02;;
11531;SDS011;5822;51.000;5.874;2023-03-01T14:26:24;25.23;;;23.83;;
11531;SDS011;5822;51.000;5.874;2023-03-01T14:28:50;26.15;;;24.65;;
11531;SDS011;5822;51.000;5.874;2023-03-01T14:31:36;26.48;;;24.98;;
11531;SDS011;5822;51.000;5.874;2023-03-01T14:34:04;25.90;;;24.40;;
11531;SDS011;5822;51.000;5.874;2023-03-01T14:36:31;26.83;;;25.33;;
11531;SDS011;5822;51.000;5.874;2023-03-01T14:38:58;26.17;;;24.73;;
11531;SDS011;5822;51.000;5.874;2023-03-01T14:41:30;25.80;;;24.38;;
11531;SDS011;5822;51.000;5.874;2023-03-01T14:44:00;26.77;;;25.27;;
11531;SDS011;5822;51.000;5.874;2023-03-01T14:48:57;26.90;;;25.40;;
11531;SDS011;5822;51.000;5.874;2023-03-01T14:51:39;25.92;;;24.52;;
11531;SDS011;5822;51.000;5.874;2023-03-01T14:57:19;24.75;;;23.35;;
11531;SDS011;5822;51.000;5.874;2023-03-01T14:59:47;26.13;;;24.63;;
11531;SDS011;5822;51.000;5.874;2023-03-01T15:02:16;26.27;;;24.77;;
11531;SDS011;5822;51.000;5.874;2023-03-01T15:05:01;25.42;;;23.92;;
11531;SDS011;5822;51.000;5.874;2023-03-01T15:07:33;23.63;;;22.33;;
11531;SDS011;5822;51.000;5.874;2023-03-01T15:10:02;23.15;;;21.75;;
11531;SDS011;5822;51.000;5.874;2023-03-01T15:12:34;22.42;;;21.15;;
11531;SDS011;5822;51.000;5.874;2023-03-01T15:15:01;22.58;;;21.27;;
11531;SDS011;5822;51.000;5.874;2023-03-01T15:17:48;23.15;;;21.85;;
11531;SDS011;5822;51.000;5.874;2023-03-01T15:20:20;23.20;;;21.90;;
11531;SDS011;5822;51.000;5.874;2023-03-01T15:22:50;24.02;;;22.63;;
11531;SDS011;5822;51.000;5.874;2023-03-01T15:25:21;24.10;;;22.80;;
11531;SDS011;5822;51.000;5.874;2023-03-01T15:27:52;23.63;;;22.33;;
11531;SDS011;5822;51.000;5.874;2023-03-01T15:30:20;24.67;;;23.30;;
11531;SDS011;5822;51.000;5.874;2023-03-01T15:32:48;24.70;;;23.30;;
11531;SDS011;5822;51.000;5.874;2023-03-01T15:35:49;23.35;;;22.05;;
11531;SDS011;5822;51.000;5.874;2023-03-01T15:38:33;23.67;;;22.38;;
11531;SDS011;5822;51.000;5.874;2023-03-01T15:41:24;24.95;;;23.55;;
11531;SDS011;5822;51.000;5.874;2023-03-01T15:43:50;24.35;;;22.95;;
11531;SDS011;5822;51.000;5.874;2023-03-01T15:48:58;24.88;;;23.48;;
11531;SDS011;5822;51.000;5.874;2023-03-01T15:51:33;24.15;;;22.85;;
11531;SDS011;5822;51.000;5.874;2023-03-01T15:54:05;25.27;;;23.90;;
11531;SDS011;5822;51.000;5.874;2023-03-01T15:56:38;25.35;;;24.00;;
11531;SDS011;5822;51.000;5.874;2023-03-01T15:59:04;24.50;;;23.20;;
11531;SDS011;5822;51.000;5.874;2023-03-01T16:01:32;26.40;;;25.00;;
11531;SDS011;5822;51.000;5.874;2023-03-01T16:03:59;24.90;;;23.40;;
11531;SDS011;5822;51.000;5.874;2023-03-01T16:06:25;24.17;;;22.87;;
11531;SDS011;5822;51.000;5.874;2023-03-01T16:08:51;25.00;;;23.70;;
11531;SDS011;5822;51.000;5.874;2023-03-01T16:11:17;25.70;;;24.20;;
11531;SDS011;5822;51.000;5.874;2023-03-01T16:13:44;25.53;;;24.13;;
11531;SDS011;5822;51.000;5.874;2023-03-01T16:16:11;26.35;;;24.95;;
11531;SDS011;5822;51.000;5.874;2023-03-01T16:18:39;23.88;;;22.58;;
11531;SDS011;5822;51.000;5.874;2023-03-01T16:21:06;24.30;;;22.90;;
11531;SDS011;5822;51.000;5.874;2023-03-01T16:23:31;23.80;;;22.50;;
11531;SDS011;5822;51.000;5.874;2023-03-01T16:26:00;23.70;;;22.40;;
11531;SDS011;5822;51.000;5.874;2023-03-01T16:28:26;23.17;;;21.77;;
11531;SDS011;5822;51.000;5.874;2023-03-01T16:30:52;23.17;;;21.87;;
11531;SDS011;5822;51.000;5.874;2023-03-01T16:33:17;23.03;;;21.73;;
11531;SDS011;5822;51.000;5.874;2023-03-01T16:35:43;23.35;;;22.05;;
11531;SDS011;5822;51.000;5.874;2023-03-01T16:38:09;22.40;;;21.20;;
11531;SDS011;5822;51.000;5.874;2023-03-01T16:40:35;22.77;;;21.52;;
11531;SDS011;5822;51.000;5.874;2023-03-01T16:43:01;23.50;;;22.20;;
11531;SDS011;5822;51.000;5.874;2023-03-01T16:45:27;23.65;;;22.35;;
11531;SDS011;5822;51.000;5.874;2023-03-01T16:47:57;22.58;;;21.38;;
11531;SDS011;5822;51.000;5.874;2023-03-01T16:50:23;23.52;;;22.23;;
11531;SDS011;5822;51.000;5.874;2023-03-01T16:52:49;24.43;;;23.13;;
11531;SDS011;5822;51.000;5.874;2023-03-01T16:55:15;24.17;;;22.77;;
11531;SDS011;5822;51.000;5.874;2023-03-01T16:57:40;23.57;;;22.27;;
11531;SDS011;5822;51.000;5.874;2023-03-01T17:00:06;22.87;;;21.57;;
11531;SDS011;5822;51.000;5.874;2023-03-01T17:02:37;21.88;;;20.67;;